Time;durP1;ratioP1;P1;durP2;ratioP2;P2;SDS_P1;SDS_P2;PMS_P1;PMS_P2;Temp;Humidity;BMP_temperature;BMP_pressure;BME280_temperature;BME280_humidity;BME280_pressure;Samples;Min_cycle;Max_cycle;Signal;HPM_P1;HPM_P2
2022/04/24 00:02:14;;;;;;;7.37;6.40;;;10.60;96.40;;;;;;5087588;28;20485;-75
2022/04/24 00:04:40;;;;;;;7.18;6.25;;;10.60;96.40;;;;;;5089408;28;20763;-75
2022/04/24 00:07:09;;;;;;;7.43;6.43;;;10.60;96.40;;;;;;5087879;28;20406;-75
2022/04/24 00:09:36;;;;;;;7.35;6.35;;;10.60;96.50;;;;;;5087494;28;20402;-75
2022/04/24 00:12:01;;;;;;;6.97;6.25;;;10.60;96.60;;;;;;5088909;28;20404;-75
2022/04/24 00:14:27;;;;;;;7.78;6.55;;;10.50;96.30;;;;;;5087906;28;20436;-75
2022/04/24 00:16:53;;;;;;;7.50;6.55;;;10.50;96.50;;;;;;5088906;28;20402;-75
2022/04/24 00:19:19;;;;;;;7.97;6.47;;;10.50;96.70;;;;;;5088368;28;20400;-76
2022/04/24 00:21:46;;;;;;;8.17;6.67;;;10.40;96.50;;;;;;5088945;28;20402;-75
2022/04/24 00:24:13;;;;;;;10.57;6.43;;;10.40;96.60;;;;;;5087026;28;20408;-75
2022/04/24 00:26:39;;;;;;;8.70;6.37;;;10.40;97.10;;;;;;5087290;28;20905;-75
2022/04/24 00:29:04;;;;;;;8.23;6.55;;;10.40;97.00;;;;;;5087388;28;20492;-76
2022/04/24 00:31:30;;;;;;;7.50;6.65;;;10.30;97.10;;;;;;5088423;28;20394;-75
2022/04/24 00:33:55;;;;;;;7.03;6.33;;;10.30;97.00;;;;;;5088221;28;20444;-76
2022/04/24 00:36:21;;;;;;;7.03;6.32;;;10.30;97.30;;;;;;5088152;28;20441;-75
2022/04/24 00:38:46;;;;;;;8.20;6.37;;;10.30;97.00;;;;;;5088154;28;20409;-76
2022/04/24 00:41:12;;;;;;;7.68;6.90;;;10.20;97.30;;;;;;5088338;28;21142;-75
2022/04/24 00:43:38;;;;;;;7.63;6.83;;;10.20;97.30;;;;;;5087141;28;20408;-75
2022/04/24 00:46:33;;;;;;;8.20;7.05;;;10.20;97.20;;;;;;5088585;28;20405;-75
2022/04/24 00:48:59;;;;;;;7.35;6.65;;;10.10;97.60;;;;;;5088191;28;20454;-76
2022/04/24 00:51:25;;;;;;;8.65;7.18;;;10.10;97.50;;;;;;5086901;28;20895;-76
2022/04/24 00:53:51;;;;;;;9.10;7.25;;;10.00;97.70;;;;;;5088309;28;20483;-75
2022/04/24 00:56:18;;;;;;;7.63;6.82;;;10.00;98.00;;;;;;5082095;28;20454;-75
2022/04/24 00:58:44;;;;;;;7.20;6.45;;;10.00;98.10;;;;;;4984495;28;20915;-75
2022/04/24 01:01:09;;;;;;;7.63;6.53;;;10.00;97.80;;;;;;4985881;28;20456;-76
2022/04/24 01:03:35;;;;;;;7.72;6.97;;;10.00;98.10;;;;;;4986268;28;20411;-76
2022/04/24 01:06:02;;;;;;;8.50;6.87;;;10.00;98.10;;;;;;4986100;28;20411;-75
2022/04/24 01:08:27;;;;;;;8.00;7.03;;;10.00;98.20;;;;;;4985828;28;20410;-75
2022/04/24 01:10:53;;;;;;;9.13;6.90;;;9.90;98.30;;;;;;4984868;28;20422;-76
2022/04/24 01:13:18;;;;;;;7.75;6.72;;;9.90;98.20;;;;;;4984502;28;20462;-75
2022/04/24 01:15:44;;;;;;;8.03;7.07;;;9.90;98.30;;;;;;4985391;28;20460;-75
2022/04/24 01:18:10;;;;;;;8.88;7.25;;;9.80;98.60;;;;;;4985862;28;20828;-76
2022/04/24 01:20:36;;;;;;;7.85;6.80;;;9.80;98.60;;;;;;4985750;28;20982;-75
2022/04/24 01:23:02;;;;;;;8.02;7.18;;;9.80;98.60;;;;;;4985937;28;20407;-76
2022/04/24 01:25:27;;;;;;;8.53;7.20;;;9.80;98.90;;;;;;4985336;28;20407;-76
2022/04/24 01:27:53;;;;;;;9.98;7.80;;;9.80;98.70;;;;;;4985226;28;20410;-75
2022/04/24 01:30:18;;;;;;;10.10;7.33;;;9.70;99.30;;;;;;5000759;28;20422;-76
2022/04/24 01:32:44;;;;;;;8.00;7.20;;;9.70;98.90;;;;;;4984457;28;20422;-75
2022/04/24 01:35:13;;;;;;;8.10;7.27;;;9.60;99.20;;;;;;4985526;28;20441;-75
2022/04/24 01:37:42;;;;;;;8.88;7.40;;;9.60;99.50;;;;;;4984498;28;20512;-75
2022/04/24 01:40:09;;;;;;;9.23;7.27;;;9.50;99.30;;;;;;4985574;28;20760;-75
2022/04/24 01:42:34;;;;;;;7.80;7.00;;;9.50;99.50;;;;;;4985131;28;20434;-75
2022/04/24 01:45:00;;;;;;;9.20;7.53;;;9.50;99.90;;;;;;4985475;28;20422;-75
2022/04/24 01:47:25;;;;;;;9.30;7.60;;;9.40;99.90;;;;;;4985619;28;20820;-75
2022/04/24 01:49:51;;;;;;;8.30;7.40;;;9.40;99.90;;;;;;4985383;28;20410;-75
2022/04/24 01:52:16;;;;;;;9.18;7.70;;;9.40;99.90;;;;;;4983718;28;20399;-75
2022/04/24 01:54:42;;;;;;;8.77;7.37;;;9.30;99.90;;;;;;4985408;28;20800;-75
2022/04/24 01:57:07;;;;;;;8.33;7.30;;;9.30;99.90;;;;;;5025641;28;20437;-75
2022/04/24 01:59:33;;;;;;;9.23;7.80;;;9.20;99.90;;;;;;5087725;28;20457;-75
2022/04/24 02:01:58;;;;;;;8.90;8.00;;;9.20;99.90;;;;;;5103475;28;20405;-75
2022/04/24 02:04:24;;;;;;;9.00;7.82;;;9.20;99.90;;;;;;5087028;28;20515;-75
2022/04/24 02:06:50;;;;;;;8.50;7.60;;;9.10;99.90;;;;;;5086267;28;20444;-75
2022/04/24 02:09:16;;;;;;;8.98;7.50;;;9.10;99.90;;;;;;5086441;28;20414;-75
2022/04/24 02:11:41;;;;;;;9.48;7.90;;;9.10;99.90;;;;;;5085878;28;20418;-75
2022/04/24 02:14:07;;;;;;;10.05;7.50;;;9.10;99.90;;;;;;5087369;28;20425;-75
2022/04/24 02:16:33;;;;;;;8.93;7.97;;;9.10;99.90;;;;;;5085833;28;20410;-75
2022/04/24 02:18:59;;;;;;;8.43;7.53;;;9.10;99.90;;;;;;5087371;28;20397;-75
2022/04/24 02:21:25;;;;;;;9.65;7.80;;;9.00;99.90;;;;;;5086025;28;20411;-75
2022/04/24 02:23:51;;;;;;;9.90;7.43;;;9.00;99.90;;;;;;5087426;28;20406;-75
2022/04/24 02:26:17;;;;;;;9.13;8.13;;;8.90;99.90;;;;;;5086818;28;20402;-76
2022/04/24 02:28:42;;;;;;;8.00;7.20;;;8.80;99.90;;;;;;5087457;28;20481;-75
2022/04/24 02:31:08;;;;;;;9.97;7.83;;;8.80;99.90;;;;;;5085811;28;20537;-75
2022/04/24 02:33:34;;;;;;;9.10;7.57;;;8.80;99.90;;;;;;5085882;28;20434;-75
2022/04/24 02:35:59;;;;;;;9.80;7.90;;;8.80;99.90;;;;;;5087425;28;20519;-76
2022/04/24 02:38:25;;;;;;;9.50;7.60;;;8.70;99.90;;;;;;5088527;28;20414;-75
2022/04/24 02:40:51;;;;;;;10.30;7.90;;;8.70;99.90;;;;;;5090655;28;20452;-75
2022/04/24 02:43:16;;;;;;;8.45;7.45;;;8.70;99.90;;;;;;5089499;28;20489;-75
2022/04/24 02:45:42;;;;;;;10.07;7.77;;;8.70;99.90;;;;;;5090362;28;20424;-75
2022/04/24 02:48:08;;;;;;;8.88;7.70;;;8.70;99.90;;;;;;5089770;28;20990;-75
2022/04/24 02:50:33;;;;;;;9.52;7.78;;;8.70;99.90;;;;;;5090183;28;20408;-75
2022/04/24 02:52:59;;;;;;;9.13;8.00;;;8.60;99.90;;;;;;5090373;28;20402;-75
2022/04/24 02:55:25;;;;;;;9.55;7.80;;;8.60;99.90;;;;;;5037360;28;20770;-75
2022/04/24 02:57:52;;;;;;;10.02;7.78;;;8.60;99.90;;;;;;5090272;28;20907;-76
2022/04/24 03:00:27;;;;;;;9.30;7.65;;;8.60;99.90;;;;;;5028209;28;20640;-76
2022/04/24 03:02:53;;;;;;;9.03;7.83;;;8.50;99.90;;;;;;5010713;28;20449;-76
2022/04/24 03:05:23;;;;;;;8.45;7.55;;;8.50;99.90;;;;;;5089991;28;20398;-76
2022/04/24 03:07:50;;;;;;;8.90;7.38;;;8.50;99.90;;;;;;5090207;28;20816;-76
2022/04/24 03:10:19;;;;;;;9.77;8.05;;;8.50;99.90;;;;;;5090010;28;20748;-76
2022/04/24 03:12:46;;;;;;;9.93;8.10;;;8.50;99.90;;;;;;5037908;28;20417;-76
2022/04/24 03:15:14;;;;;;;11.70;8.30;;;8.40;99.90;;;;;;5006913;28;20444;-76
2022/04/24 03:17:40;;;;;;;9.68;7.82;;;8.40;99.90;;;;;;5005452;28;20925;-76
2022/04/24 03:20:09;;;;;;;10.32;8.27;;;8.40;99.90;;;;;;5006985;28;20739;-76
2022/04/24 03:22:34;;;;;;;9.73;7.47;;;8.40;99.90;;;;;;5007131;28;20424;-76
2022/04/24 03:25:01;;;;;;;10.07;8.00;;;8.30;99.90;;;;;;5007173;28;20397;-75
2022/04/24 03:27:26;;;;;;;9.35;7.63;;;8.30;99.90;;;;;;5006739;28;20962;-75
2022/04/24 03:29:52;;;;;;;8.90;7.57;;;8.30;99.90;;;;;;5058723;28;20394;-76
2022/04/24 03:32:18;;;;;;;9.80;7.60;;;8.30;99.90;;;;;;5089885;28;20875;-76
2022/04/24 03:34:43;;;;;;;9.90;7.70;;;8.30;99.90;;;;;;5089709;28;20425;-76
2022/04/24 03:37:09;;;;;;;9.35;7.43;;;8.20;99.90;;;;;;5089524;28;20406;-76
2022/04/24 03:39:36;;;;;;;11.00;7.33;;;8.20;99.90;;;;;;5089980;28;20489;-75
2022/04/24 03:42:02;;;;;;;7.80;6.95;;;8.20;99.90;;;;;;5088286;28;20410;-76
2022/04/24 03:44:28;;;;;;;9.77;7.28;;;8.20;99.90;;;;;;5088028;28;20404;-76
2022/04/24 03:46:53;;;;;;;10.80;7.70;;;8.20;99.90;;;;;;5088228;28;20406;-76
2022/04/24 03:49:19;;;;;;;9.57;7.78;;;8.20;99.90;;;;;;5089329;28;20410;-76
2022/04/24 03:51:45;;;;;;;9.73;8.03;;;8.20;99.90;;;;;;5089208;28;20424;-76
2022/04/24 03:54:10;;;;;;;12.15;8.30;;;8.20;99.90;;;;;;5087834;28;20839;-76
2022/04/24 03:56:36;;;;;;;11.53;8.27;;;8.20;99.90;;;;;;5064309;28;20422;-76
2022/04/24 03:59:02;;;;;;;11.57;8.73;;;8.10;99.90;;;;;;5004124;28;20464;-76
2022/04/24 04:01:27;;;;;;;9.50;8.48;;;8.10;99.90;;;;;;5005855;28;20448;-76
2022/04/24 04:03:53;;;;;;;10.47;8.73;;;8.10;99.90;;;;;;5005025;28;20413;-76
2022/04/24 04:06:19;;;;;;;11.30;8.80;;;8.10;99.90;;;;;;4998349;28;20419;-76
2022/04/24 04:08:45;;;;;;;11.80;9.38;;;8.10;99.90;;;;;;4986551;28;20410;-76
2022/04/24 04:11:12;;;;;;;10.80;9.25;;;8.00;99.90;;;;;;4969465;28;20437;-76
2022/04/24 04:13:38;;;;;;;13.40;9.85;;;8.10;99.90;;;;;;4985340;28;20438;-76
2022/04/24 04:16:03;;;;;;;12.07;9.47;;;8.00;99.90;;;;;;5069532;28;20410;-76
2022/04/24 04:18:29;;;;;;;11.48;9.48;;;8.00;99.90;;;;;;5088187;28;20417;-76
2022/04/24 04:20:55;;;;;;;12.93;10.00;;;8.00;99.90;;;;;;5087674;28;20411;-75
2022/04/24 04:23:20;;;;;;;11.53;9.47;;;8.10;99.90;;;;;;5088855;28;20402;-76
2022/04/24 04:25:46;;;;;;;13.75;9.70;;;8.10;99.90;;;;;;5087551;28;20879;-75
2022/04/24 04:28:11;;;;;;;12.50;9.80;;;8.10;99.90;;;;;;5088855;28;20405;-76
2022/04/24 04:30:37;;;;;;;13.07;10.10;;;8.10;99.90;;;;;;5087753;28;20425;-76
2022/04/24 04:33:03;;;;;;;13.03;10.60;;;8.10;99.90;;;;;;5087311;28;20398;-76
2022/04/24 04:35:28;;;;;;;13.95;10.10;;;8.10;99.90;;;;;;5087417;28;20403;-75
2022/04/24 04:37:54;;;;;;;13.87;10.03;;;8.10;99.90;;;;;;5088642;28;20516;-76
2022/04/24 04:40:22;;;;;;;12.95;10.48;;;8.10;99.90;;;;;;5087775;28;20394;-76
2022/04/24 04:42:49;;;;;;;13.40;9.93;;;8.20;99.90;;;;;;5089053;28;20408;-76
2022/04/24 04:45:15;;;;;;;13.80;10.13;;;8.20;99.90;;;;;;5088581;28;20406;-76
2022/04/24 04:47:41;;;;;;;14.48;10.60;;;8.20;99.90;;;;;;5086896;28;20903;-76
2022/04/24 04:50:07;;;;;;;13.97;9.90;;;8.30;99.90;;;;;;5088317;28;20413;-76
2022/04/24 04:52:33;;;;;;;13.50;10.00;;;8.30;99.90;;;;;;5087158;28;20406;-76
2022/04/24 04:54:59;;;;;;;12.70;9.60;;;8.40;99.90;;;;;;5087228;28;20439;-76
2022/04/24 04:57:25;;;;;;;11.43;9.85;;;8.40;99.90;;;;;;5087090;28;20412;-76
2022/04/24 04:59:51;;;;;;;11.80;8.95;;;8.40;99.90;;;;;;5087702;28;20406;-76
2022/04/24 05:02:17;;;;;;;12.27;9.07;;;8.40;99.90;;;;;;5070073;28;20418;-76
2022/04/24 05:04:43;;;;;;;12.90;8.73;;;8.50;99.90;;;;;;5088237;28;20398;-76
2022/04/24 05:07:10;;;;;;;10.15;8.00;;;8.50;99.90;;;;;;5088057;28;20419;-76
2022/04/24 05:09:36;;;;;;;11.60;8.02;;;8.60;99.90;;;;;;5086876;28;20970;-76
2022/04/24 05:12:01;;;;;;;12.05;8.65;;;8.60;99.90;;;;;;5087829;28;20503;-76
2022/04/24 05:14:27;;;;;;;11.77;8.13;;;8.70;99.90;;;;;;5087960;28;20432;-76
2022/04/24 05:16:52;;;;;;;11.13;7.95;;;8.70;99.90;;;;;;5086410;28;20759;-76
2022/04/24 05:19:18;;;;;;;10.13;7.77;;;8.70;99.90;;;;;;5087919;28;20409;-76
2022/04/24 05:21:43;;;;;;;9.98;7.57;;;8.70;99.90;;;;;;5088180;28;20452;-76
2022/04/24 05:24:09;;;;;;;10.43;8.30;;;8.80;99.90;;;;;;5087995;28;20410;-76
2022/04/24 05:26:34;;;;;;;11.07;8.13;;;8.80;99.90;;;;;;5086112;28;20444;-76
2022/04/24 05:29:00;;;;;;;10.47;8.30;;;8.80;99.90;;;;;;5087977;28;20406;-76
2022/04/24 05:31:26;;;;;;;11.77;8.18;;;8.80;99.90;;;;;;5088059;28;20759;-76
2022/04/24 05:33:51;;;;;;;10.73;7.60;;;8.80;99.90;;;;;;5087707;28;20421;-76
2022/04/24 05:36:17;;;;;;;10.57;7.80;;;8.80;99.90;;;;;;5087854;28;20402;-76
2022/04/24 05:38:43;;;;;;;10.10;7.67;;;8.80;99.90;;;;;;5087779;28;20402;-76
2022/04/24 05:41:08;;;;;;;10.95;7.20;;;8.80;99.90;;;;;;5086702;28;20767;-75
2022/04/24 05:43:34;;;;;;;9.53;6.77;;;8.80;99.90;;;;;;5086684;28;20409;-76
2022/04/24 05:45:59;;;;;;;10.95;7.28;;;8.80;99.90;;;;;;5087460;28;20402;-76
2022/04/24 05:48:25;;;;;;;8.50;6.23;;;8.90;99.90;;;;;;5087204;28;20394;-76
2022/04/24 05:50:50;;;;;;;10.18;6.43;;;8.90;99.90;;;;;;5087714;28;20414;-75
2022/04/24 05:53:16;;;;;;;8.40;6.37;;;8.90;99.90;;;;;;5086607;28;20488;-76
2022/04/24 05:55:41;;;;;;;7.78;5.88;;;9.00;99.90;;;;;;5087398;28;20417;-76
2022/04/24 05:58:07;;;;;;;10.07;6.00;;;9.00;99.90;;;;;;5086388;28;20945;-76
2022/04/24 06:00:33;;;;;;;8.30;5.47;;;9.00;99.90;;;;;;5087676;28;20743;-76
2022/04/24 06:03:00;;;;;;;7.70;5.50;;;9.00;99.90;;;;;;5087506;28;20434;-76
2022/04/24 06:05:25;;;;;;;7.85;5.45;;;9.00;99.90;;;;;;5086308;28;20904;-76
2022/04/24 06:07:51;;;;;;;7.35;4.63;;;9.10;99.90;;;;;;5086402;28;20489;-76
2022/04/24 06:10:17;;;;;;;8.10;4.68;;;9.10;99.90;;;;;;5087281;28;20724;-76
2022/04/24 06:12:50;;;;;;;6.33;3.77;;;9.20;99.90;;;;;;5088405;28;20406;-76
2022/04/24 06:15:20;;;;;;;6.57;4.10;;;9.20;99.90;;;;;;5091103;28;21132;-76
2022/04/24 06:17:47;;;;;;;6.40;3.80;;;9.20;99.90;;;;;;5091191;28;20421;-76
2022/04/24 06:20:13;;;;;;;7.03;3.85;;;9.30;99.90;;;;;;5091449;28;20459;-76
2022/04/24 06:22:49;;;;;;;6.20;3.30;;;9.30;99.90;;;;;;5091080;28;20394;-76
2022/04/24 06:25:18;;;;;;;6.40;3.00;;;9.40;99.90;;;;;;5090171;28;20443;-76
2022/04/24 06:27:45;;;;;;;6.30;3.50;;;9.40;99.90;;;;;;5089599;28;20417;-76
2022/04/24 06:30:11;;;;;;;6.28;3.22;;;9.50;99.90;;;;;;5090894;28;20413;-76
2022/04/24 06:32:39;;;;;;;7.07;3.28;;;9.50;99.90;;;;;;5090635;28;21118;-76
2022/04/24 06:35:06;;;;;;;5.93;3.22;;;9.60;99.90;;;;;;5089579;28;20421;-76
2022/04/24 06:37:31;;;;;;;5.80;3.08;;;9.60;99.90;;;;;;5090064;28;20767;-76
2022/04/24 06:39:57;;;;;;;5.00;2.80;;;9.70;99.90;;;;;;5090962;28;20494;-76
2022/04/24 06:42:22;;;;;;;6.47;2.87;;;9.70;99.90;;;;;;5090486;28;20410;-76
2022/04/24 06:44:48;;;;;;;7.47;3.15;;;9.80;99.90;;;;;;5090621;28;20406;-76
2022/04/24 06:47:14;;;;;;;6.35;3.00;;;9.90;99.90;;;;;;5090884;28;20875;-76
2022/04/24 06:49:39;;;;;;;6.53;2.83;;;9.90;99.90;;;;;;5090798;28;20451;-76
2022/04/24 06:52:05;;;;;;;5.73;2.70;;;10.00;99.90;;;;;;5089419;28;20402;-76
2022/04/24 06:54:31;;;;;;;6.07;2.93;;;10.00;99.90;;;;;;5089435;28;20430;-76
2022/04/24 06:57:01;;;;;;;5.90;3.00;;;10.20;99.90;;;;;;5090151;28;20418;-76
2022/04/24 06:59:27;;;;;;;6.38;3.17;;;10.20;99.90;;;;;;5090330;28;20401;-76
2022/04/24 07:01:53;;;;;;;6.95;3.40;;;10.20;99.90;;;;;;5088830;28;20402;-76
2022/04/24 07:04:19;;;;;;;5.25;3.13;;;10.30;99.90;;;;;;5089570;28;20402;-76
2022/04/24 07:06:44;;;;;;;7.30;3.00;;;10.30;99.90;;;;;;5088615;28;20398;-76
2022/04/24 07:09:10;;;;;;;6.20;3.28;;;10.40;99.90;;;;;;5090594;28;20405;-76
2022/04/24 07:11:36;;;;;;;5.88;3.17;;;10.50;99.90;;;;;;5090040;28;20405;-76
2022/04/24 07:14:02;;;;;;;6.47;3.40;;;10.60;99.90;;;;;;5089282;28;20989;-76
2022/04/24 07:16:27;;;;;;;6.85;3.17;;;10.60;99.90;;;;;;5088473;28;20416;-76
2022/04/24 07:18:53;;;;;;;5.47;3.07;;;10.60;99.90;;;;;;5065369;28;20415;-76
2022/04/24 07:21:18;;;;;;;7.20;3.50;;;10.70;99.90;;;;;;5040937;28;20421;-76
2022/04/24 07:23:44;;;;;;;6.47;3.40;;;10.80;99.90;;;;;;4999112;28;20406;-76
2022/04/24 07:26:10;;;;;;;5.25;3.00;;;10.80;99.90;;;;;;5089619;28;20505;-76
2022/04/24 07:28:36;;;;;;;6.32;3.78;;;10.80;99.90;;;;;;5053684;28;20451;-76
2022/04/24 07:31:02;;;;;;;6.10;3.50;;;10.90;99.90;;;;;;4987462;28;20478;-76
2022/04/24 07:33:27;;;;;;;5.67;3.47;;;11.00;99.90;;;;;;4985878;28;20438;-76
2022/04/24 07:35:53;;;;;;;6.83;3.70;;;11.10;99.90;;;;;;4987396;28;20403;-76
2022/04/24 07:38:19;;;;;;;5.90;3.60;;;11.20;99.90;;;;;;5073679;28;20398;-76
2022/04/24 07:40:44;;;;;;;6.60;3.90;;;11.30;99.90;;;;;;5089565;28;20417;-76
2022/04/24 07:43:11;;;;;;;6.25;3.55;;;11.40;99.90;;;;;;5036827;28;20493;-76
2022/04/24 07:45:38;;;;;;;5.82;3.08;;;11.40;99.90;;;;;;4968614;28;20932;-76
2022/04/24 07:48:08;;;;;;;6.88;3.13;;;11.40;99.90;;;;;;4997958;28;20927;-76
2022/04/24 07:50:37;;;;;;;7.00;3.20;;;11.50;99.90;;;;;;5071784;28;20822;-76
2022/04/24 07:53:03;;;;;;;9.32;3.63;;;11.50;99.60;;;;;;4985514;28;20426;-76
2022/04/24 07:55:29;;;;;;;7.55;3.35;;;11.50;99.90;;;;;;4992317;28;20418;-76
2022/04/24 07:57:58;;;;;;;6.13;3.10;;;11.60;99.90;;;;;;4981472;28;20406;-76
2022/04/24 08:00:26;;;;;;;7.13;2.83;;;11.70;98.90;;;;;;4985665;28;20403;-76
2022/04/24 08:03:02;;;;;;;4.95;3.00;;;11.70;98.40;;;;;;4998011;28;20407;-75
2022/04/24 08:05:38;;;;;;;6.13;3.13;;;11.80;99.10;;;;;;4985558;28;20497;-76
2022/04/24 08:08:06;;;;;;;5.80;2.92;;;11.90;98.40;;;;;;5005710;28;20474;-76
2022/04/24 08:10:39;;;;;;;6.40;3.42;;;12.00;98.50;;;;;;4985426;28;20415;-76
2022/04/24 08:13:06;;;;;;;6.70;3.70;;;12.10;99.30;;;;;;5085718;28;20506;-76
2022/04/24 08:15:33;;;;;;;9.87;3.97;;;12.10;99.20;;;;;;4985930;28;20419;-76
2022/04/24 08:18:00;;;;;;;5.97;3.35;;;12.20;99.10;;;;;;4986203;28;20419;-76
2022/04/24 08:20:25;;;;;;;6.15;3.00;;;12.20;98.30;;;;;;4983831;28;20503;-77
2022/04/24 08:22:53;;;;;;;7.07;3.13;;;12.20;97.90;;;;;;5086223;28;20551;-76
2022/04/24 08:25:21;;;;;;;5.63;2.83;;;12.30;97.50;;;;;;4985266;28;20407;-76
2022/04/24 08:27:48;;;;;;;5.80;2.50;;;12.40;97.50;;;;;;4983784;28;20419;-76
2022/04/24 08:30:15;;;;;;;5.72;2.95;;;12.50;97.00;;;;;;4985209;28;20478;-76
2022/04/24 08:32:42;;;;;;;4.45;2.50;;;12.50;96.20;;;;;;4985029;28;20410;-76
2022/04/24 08:35:10;;;;;;;4.82;3.10;;;12.60;96.50;;;;;;4983901;28;20427;-76
2022/04/24 08:37:36;;;;;;;7.00;3.70;;;12.70;96.30;;;;;;5086003;28;20471;-76
2022/04/24 08:40:05;;;;;;;6.95;3.38;;;12.70;96.40;;;;;;4994595;28;20407;-76
2022/04/24 08:42:31;;;;;;;4.63;3.13;;;12.80;97.00;;;;;;4987635;28;20420;-76
2022/04/24 08:44:57;;;;;;;6.03;3.20;;;12.80;97.20;;;;;;4983388;28;20420;-76
2022/04/24 08:47:24;;;;;;;4.72;2.80;;;12.90;97.70;;;;;;5086121;28;20467;-75
2022/04/24 08:49:56;;;;;;;5.32;2.80;;;13.00;96.10;;;;;;5017381;28;20462;-76
2022/04/24 08:52:23;;;;;;;4.82;2.90;;;13.10;95.60;;;;;;5088476;28;20402;-75
2022/04/24 08:54:50;;;;;;;6.45;3.10;;;13.10;95.60;;;;;;5088145;28;20468;-75
2022/04/24 08:57:17;;;;;;;3.47;2.30;;;13.10;95.80;;;;;;5089215;28;20052;-75
2022/04/24 08:59:43;;;;;;;6.00;2.38;;;13.20;95.30;;;;;;4976432;28;20057;-75
2022/04/24 09:02:10;;;;;;;6.22;2.78;;;13.30;95.50;;;;;;5023629;28;20054;-75
2022/04/24 09:04:37;;;;;;;6.00;2.10;;;13.50;95.70;;;;;;5040458;28;20043;-75
2022/04/24 09:07:03;;;;;;;;;;;13.50;94.60;;;;;;4987449;28;20129;-75
2022/04/24 09:09:40;;;;;;;;;;;13.60;95.20;;;;;;4987540;28;19992;-75
2022/04/24 09:12:06;;;;;;;;;;;13.70;94.30;;;;;;4987291;28;19922;-75
2022/04/24 09:14:32;;;;;;;;;;;13.90;94.80;;;;;;4998774;28;19999;-75
2022/04/24 09:17:01;;;;;;;;;;;14.00;94.10;;;;;;5023166;28;19926;-75
2022/04/24 09:19:26;;;;;;;;;;;14.20;93.30;;;;;;4978234;28;19922;-75
2022/04/24 09:21:53;;;;;;;;;;;14.20;92.70;;;;;;5038741;28;19927;-75
2022/04/24 09:24:19;;;;;;;;;;;14.60;93.70;;;;;;5089722;28;19921;-76
2022/04/24 09:26:55;;;;;;;;;;;15.30;92.90;;;;;;5089545;28;20577;-76
2022/04/24 09:29:21;;;;;;;;;;;15.70;91.60;;;;;;5046759;28;19943;-76
2022/04/24 09:31:47;;;;;;;;;;;16.00;90.00;;;;;;5002268;28;20232;-76
2022/04/24 09:34:16;;;;;;;3.85;1.95;;;16.20;86.70;;;;;;5004622;28;19926;-76
2022/04/24 09:36:41;;;;;;;;;;;16.40;85.90;;;;;;5006403;28;20426;-76
2022/04/24 09:39:07;;;;;;;;;;;16.70;85.50;;;;;;5014859;28;19925;-76
2022/04/24 09:41:32;;;;;;;;;;;17.10;82.80;;;;;;5005000;28;19921;-76
2022/04/24 09:44:10;;;;;;;;;;;17.20;79.80;;;;;;4998442;28;19983;-76
2022/04/24 09:46:35;;;;;;;;;;;17.40;80.60;;;;;;5004294;28;20438;-76
2022/04/24 09:49:01;;;;;;;;;;;17.50;78.10;;;;;;5005050;28;19995;-76
2022/04/24 09:51:27;;;;;;;;;;;17.60;74.60;;;;;;5006861;28;19923;-75
2022/04/24 09:53:53;;;;;;;;;;;17.70;76.40;;;;;;5008009;28;20366;-75
2022/04/24 09:56:19;;;;;;;;;;;17.90;74.10;;;;;;5084038;28;19924;-76
2022/04/24 09:58:47;;;;;;;;;;;17.80;73.20;;;;;;5040960;28;19922;-76
2022/04/24 10:01:13;;;;;;;;;;;17.90;72.90;;;;;;5003617;28;19921;-76
2022/04/24 10:03:39;;;;;;;;;;;18.10;73.60;;;;;;5006994;28;19928;-76
2022/04/24 10:06:05;;;;;;;;;;;18.30;71.80;;;;;;5112133;27;19933;-76
2022/04/24 10:08:33;;;;;;;;;;;18.60;71.70;;;;;;5006157;28;19925;-76
2022/04/24 10:11:01;;;;;;;;;;;18.70;68.30;;;;;;5001325;28;19929;-76
2022/04/24 10:13:27;;;;;;;;;;;18.80;66.80;;;;;;4990077;28;20345;-76
2022/04/24 10:16:04;;;;;;;;;;;18.80;66.20;;;;;;4970460;28;19976;-75
2022/04/24 10:18:48;;;;;;;;;;;18.70;64.00;;;;;;5003635;28;20012;-76
2022/04/24 10:21:23;;;;;;;;;;;18.90;64.90;;;;;;5008513;28;19956;-76
2022/04/24 10:23:48;;;;;;;;;;;19.10;63.20;;;;;;5007990;28;20371;-76
2022/04/24 10:26:21;;;;;;;;;;;19.20;64.50;;;;;;5112169;27;19925;-76
2022/04/24 10:28:47;;;;;;;;;;;19.40;63.40;;;;;;5026511;28;19924;-76
2022/04/24 10:31:14;;;;;;;;;;;19.50;61.60;;;;;;5091495;28;19920;-76
2022/04/24 10:33:51;;;;;;;;;;;19.40;62.30;;;;;;5092106;28;19920;-76
2022/04/24 10:36:17;;;;;;;;;;;19.40;60.40;;;;;;5091171;28;19924;-76
2022/04/24 10:38:47;;;;;;;;;;;19.30;60.10;;;;;;5092638;28;19963;-76
2022/04/24 10:41:17;;;;;;;;;;;19.30;60.50;;;;;;5091419;28;19919;-76
2022/04/24 10:43:48;;;;;;;;;;;19.50;61.60;;;;;;5092392;28;20391;-76
2022/04/24 10:46:15;;;;;;;;;;;19.70;61.10;;;;;;5091627;28;19942;-76
2022/04/24 10:48:41;;;;;;;;;;;20.00;62.80;;;;;;5090990;28;20453;-76
2022/04/24 10:51:06;;;;;;;;;;;20.20;62.30;;;;;;5091068;28;20045;-76
2022/04/24 10:53:52;;;;;;;;;;;20.20;61.10;;;;;;5091115;28;19966;-76
2022/04/24 10:56:18;;;;;;;;;;;20.20;59.10;;;;;;5091506;28;19927;-76
2022/04/24 10:58:44;;;;;;;;;;;20.00;59.60;;;;;;5091986;28;20464;-76
2022/04/24 11:01:13;;;;;;;;;;;19.90;61.00;;;;;;5091861;28;19942;-76
2022/04/24 11:03:40;;;;;;;;;;;19.70;59.00;;;;;;5106729;28;19924;-76
2022/04/24 11:06:15;;;;;;;;;;;19.40;60.10;;;;;;5090343;28;19924;-76
2022/04/24 11:08:41;;;;;;;;;;;19.30;60.70;;;;;;5092286;28;19926;-76
2022/04/24 11:11:06;;;;;;;;;;;19.50;61.80;;;;;;5090951;28;19923;-76
2022/04/24 11:13:32;;;;;;;;;;;19.70;62.10;;;;;;5091750;28;19920;-76
2022/04/24 11:15:59;;;;;;;;;;;19.90;59.70;;;;;;5090551;28;19924;-76
2022/04/24 11:18:26;;;;;;;;;;;19.90;58.70;;;;;;5092249;28;19963;-76
2022/04/24 11:20:55;;;;;;;;;;;19.90;59.40;;;;;;5091859;28;19924;-76
2022/04/24 11:23:21;;;;;;;;;;;19.80;59.50;;;;;;5090827;28;20289;-76
2022/04/24 11:25:47;;;;;;;;;;;19.60;60.60;;;;;;5090233;28;19927;-76
2022/04/24 11:28:15;;;;;;;;;;;19.50;61.30;;;;;;5090897;28;19931;-76
2022/04/24 11:30:41;;;;;;;;;;;19.60;61.60;;;;;;4969768;28;20008;-76
2022/04/24 11:33:07;;;;;;;;;;;19.60;61.10;;;;;;4969779;28;20013;-76
2022/04/24 11:35:35;;;;;;;;;;;19.70;60.80;;;;;;4968556;28;19929;-76
2022/04/24 11:38:01;;;;;;;;;;;19.90;61.90;;;;;;4969596;28;19971;-76
2022/04/24 11:40:28;;;;;;;;;;;20.10;61.30;;;;;;4968658;28;20327;-76
2022/04/24 11:43:04;;;;;;;;;;;20.10;60.90;;;;;;4972690;28;20005;-76
2022/04/24 11:51:02;;;;;;;;;;;20.20;59.10;;;;;;5091098;28;19920;-76
2022/04/24 11:53:28;;;;;;;;;;;20.20;60.80;;;;;;5010615;28;21883;-76
2022/04/24 11:56:03;;;;;;;;;;;20.30;59.90;;;;;;5008390;28;20032;-76
2022/04/24 11:58:33;;;;;;;;;;;20.20;58.80;;;;;;5008419;28;19921;-76
2022/04/24 12:00:59;;;;;;;;;;;20.20;59.30;;;;;;5053047;28;19931;-76
2022/04/24 12:03:25;;;;;;;;;;;20.20;58.90;;;;;;5091255;28;20002;-76
2022/04/24 12:06:00;;;;;;;;;;;20.30;59.50;;;;;;5091172;28;19999;-76
2022/04/24 12:08:27;;;;;;;;;;;20.30;59.70;;;;;;5090042;28;20561;-76
2022/04/24 12:10:53;;;;;;;;;;;20.40;58.80;;;;;;5088707;28;19919;-76
2022/04/24 12:13:22;;;;;;;;;;;20.30;57.90;;;;;;5089683;28;20006;-76
2022/04/24 12:15:52;;;;;;;;;;;20.40;57.80;;;;;;5088983;28;20040;-76
2022/04/24 12:18:25;;;;;;;;;;;20.40;57.00;;;;;;5035281;28;20568;-76
2022/04/24 12:20:50;;;;;;;;;;;20.30;56.50;;;;;;5007021;28;20294;-76
2022/04/24 12:23:16;;;;;;;;;;;20.30;57.90;;;;;;5005772;28;19921;-76
2022/04/24 12:25:53;;;;;;;;;;;20.50;56.70;;;;;;5005680;28;19965;-76
2022/04/24 12:28:31;;;;;;;;;;;20.60;56.90;;;;;;5005581;28;19983;-76
2022/04/24 12:30:57;;;;;;;;;;;20.70;56.50;;;;;;5006723;28;20286;-76
2022/04/24 12:33:23;;;;;;;;;;;20.80;56.60;;;;;;4980638;28;20005;-76
2022/04/24 12:35:48;;;;;;;;;;;20.90;57.50;;;;;;4980375;28;20442;-76
2022/04/24 12:38:15;;;;;;;;;;;21.10;56.00;;;;;;4984878;28;19928;-76
2022/04/24 12:40:40;;;;;;;;;;;21.10;56.10;;;;;;4983130;28;20272;-76
2022/04/24 12:43:06;;;;;;;;;;;21.00;56.20;;;;;;4984490;28;19932;-76
2022/04/24 12:45:32;;;;;;;;;;;21.00;55.60;;;;;;4986282;28;20550;-76
2022/04/24 12:47:58;;;;;;;;;;;21.10;57.40;;;;;;4989201;28;20545;-76
2022/04/24 12:50:24;;;;;;;;;;;21.30;57.10;;;;;;5049970;28;20035;-75
2022/04/24 12:52:49;;;;;;;;;;;21.20;54.00;;;;;;4998837;28;20001;-76
2022/04/24 12:55:16;;;;;;;;;;;21.10;55.10;;;;;;5002238;28;20295;-76
2022/04/24 12:57:41;;;;;;;;;;;21.30;55.20;;;;;;5006267;28;19921;-76
2022/04/24 13:00:07;;;;;;;;;;;21.40;55.00;;;;;;5001841;28;20580;-76
2022/04/24 13:02:33;;;;;;;;;;;21.40;55.50;;;;;;5007595;28;19921;-76
2022/04/24 13:04:59;;;;;;;;;;;21.60;56.20;;;;;;5007480;28;20750;-76
2022/04/24 13:07:25;;;;;;;;;;;21.80;55.30;;;;;;5006407;28;20349;-76
2022/04/24 13:09:51;;;;;;;;;;;22.00;54.50;;;;;;5004016;28;19921;-76
2022/04/24 13:12:17;;;;;;;;;;;22.20;55.10;;;;;;5006039;28;20687;-76
2022/04/24 13:14:42;;;;;;;;;;;22.40;54.50;;;;;;5005816;28;20016;-75
2022/04/24 13:19:52;;;;;;;;;;;22.30;53.10;;;;;;5004701;28;19922;-75
2022/04/24 13:22:18;;;;;;;;;;;22.30;53.20;;;;;;5004939;28;19928;-75